Time;durP1;ratioP1;P1;durP2;ratioP2;P2;SDS_P1;SDS_P2;PMS_P1;PMS_P2;Temp;Humidity;BMP_temperature;BMP_pressure;BME280_temperature;BME280_humidity;BME280_pressure;Samples;Min_cycle;Max_cycle;Signal;HPM_P1;HPM_P2
2021/11/04 00:01:27;;;;;;;6.38;3.67;;;;;;;4.77;99.08;61483.25;5088145;28;20066;-73
2021/11/04 00:03:55;;;;;;;5.00;3.42;;;;;;;4.77;98.49;61483.94;5086654;28;20079;-74
2021/11/04 00:06:22;;;;;;;5.22;2.97;;;;;;;4.79;98.84;61486.03;5084267;28;20048;-73
2021/11/04 00:08:50;;;;;;;8.20;3.38;;;;;;;4.82;98.64;61488.56;5073449;28;20075;-73
2021/11/04 00:11:17;;;;;;;6.10;4.13;;;;;;;4.85;98.30;61492.09;5093421;28;20080;-73
2021/11/04 00:13:44;;;;;;;5.30;3.47;;;;;;;4.87;97.68;61494.56;5078568;28;20505;-73
2021/11/04 00:16:12;;;;;;;5.82;3.53;;;;;;;4.90;97.60;61497.50;5094501;28;20060;-74
2021/11/04 00:18:40;;;;;;;4.43;3.05;;;;;;;4.93;97.68;61499.81;5079148;28;20453;-73
2021/11/04 00:21:07;;;;;;;6.25;4.15;;;;;;;4.95;96.45;61501.81;5075025;28;20136;-73
2021/11/04 00:23:35;;;;;;;6.07;3.47;;;;;;;4.96;97.48;61503.28;5055176;28;20122;-74
2021/11/04 00:26:03;;;;;;;4.47;3.28;;;;;;;4.97;98.05;61504.69;5073734;28;20127;-74
2021/11/04 00:28:31;;;;;;;6.07;3.45;;;;;;;4.98;97.06;61505.78;5094540;28;20040;-73
2021/11/04 00:30:58;;;;;;;6.88;4.43;;;;;;;5.00;96.98;61507.16;5095561;28;20075;-75
2021/11/04 00:33:25;;;;;;;4.10;3.03;;;;;;;5.01;97.72;61508.06;5096540;28;20150;-74
2021/11/04 00:35:52;;;;;;;3.55;2.40;;;;;;;5.01;97.40;61508.38;5074338;28;20086;-74
2021/11/04 00:38:20;;;;;;;4.13;2.28;;;;;;;5.01;97.43;61508.38;5102773;28;20075;-74
2021/11/04 00:40:47;;;;;;;4.22;2.33;;;;;;;5.00;97.04;61507.56;5091522;28;20087;-73
2021/11/04 00:43:14;;;;;;;7.03;4.35;;;;;;;5.00;97.50;61507.41;5101951;28;20119;-74
2021/11/04 00:45:42;;;;;;;6.63;4.18;;;;;;;4.99;98.04;61506.16;5081702;28;20459;-73
2021/11/04 00:48:09;;;;;;;4.40;2.90;;;;;;;4.98;98.48;61505.25;5081049;28;20112;-73
2021/11/04 00:50:36;;;;;;;6.15;4.32;;;;;;;4.97;98.07;61504.47;5102135;28;20119;-74
2021/11/04 00:53:04;;;;;;;4.63;2.88;;;;;;;4.96;97.99;61503.38;5098620;28;20075;-74
2021/11/04 00:55:31;;;;;;;5.45;2.38;;;;;;;4.96;97.90;61503.25;5101203;28;20500;-73
2021/11/04 00:57:59;;;;;;;5.53;3.67;;;;;;;4.97;97.49;61504.19;5078292;28;20051;-73
2021/11/04 01:00:26;;;;;;;4.63;3.30;;;;;;;4.97;97.25;61505.34;5074795;28;20070;-73
2021/11/04 01:02:54;;;;;;;4.35;2.60;;;;;;;4.98;97.22;61506.41;5079563;28;20333;-74
2021/11/04 01:05:22;;;;;;;5.65;3.80;;;;;;;5.00;96.96;61507.78;5097353;28;20477;-74
2021/11/04 01:07:49;;;;;;;4.45;3.00;;;;;;;5.00;97.20;61508.44;5080034;28;20126;-73
2021/11/04 01:10:16;;;;;;;4.50;2.83;;;;;;;5.02;97.73;61509.63;5065902;28;20157;-73
2021/11/04 01:12:44;;;;;;;4.03;2.45;;;;;;;5.03;97.29;61511.69;5080083;28;20071;-74
2021/11/04 01:15:11;;;;;;;5.20;3.33;;;;;;;5.04;96.77;61512.53;5061013;28;20050;-73
2021/11/04 01:17:38;;;;;;;5.50;4.07;;;;;;;5.05;97.09;61512.47;5097615;28;20051;-73
2021/11/04 01:20:07;;;;;;;4.70;3.08;;;;;;;5.05;97.63;61513.31;5091273;28;20086;-73
2021/11/04 01:22:35;;;;;;;6.75;4.45;;;;;;;5.06;97.07;61513.97;5100441;28;20054;-74
2021/11/04 01:25:02;;;;;;;6.28;3.78;;;;;;;5.07;96.81;61515.25;5095270;28;20054;-73
2021/11/04 01:27:30;;;;;;;6.43;4.00;;;;;;;5.07;97.39;61515.25;5078563;28;20040;-74
2021/11/04 01:29:57;;;;;;;7.85;4.65;;;;;;;5.07;96.54;61515.19;5099026;28;20134;-74
2021/11/04 01:32:25;;;;;;;6.35;3.22;;;;;;;5.08;97.08;61516.31;5079961;28;20047;-74
2021/11/04 01:34:52;;;;;;;7.75;4.47;;;;;;;5.09;97.56;61517.69;5078581;28;20116;-73
2021/11/04 01:37:20;;;;;;;5.75;4.32;;;;;;;5.11;97.57;61519.59;5097642;28;20131;-74
2021/11/04 01:39:47;;;;;;;7.28;4.95;;;;;;;5.12;97.45;61520.25;5098275;28;20087;-74
2021/11/04 01:42:14;;;;;;;9.50;4.72;;;;;;;5.12;96.51;61520.41;5100111;28;20043;-73
2021/11/04 01:44:42;;;;;;;10.75;5.10;;;;;;;5.10;96.51;61518.75;5096412;28;20075;-73
2021/11/04 01:47:09;;;;;;;7.07;4.45;;;;;;;5.09;96.64;61517.78;5083099;28;20147;-73
2021/11/04 01:49:43;;;;;;;6.20;3.95;;;;;;;5.09;96.59;61517.00;5075421;28;20078;-73
2021/11/04 01:52:11;;;;;;;6.40;4.70;;;;;;;5.07;96.91;61515.78;5075260;28;20047;-74
2021/11/04 01:54:39;;;;;;;7.10;4.85;;;;;;;5.07;96.96;61515.50;5075275;28;20103;-73
2021/11/04 01:57:06;;;;;;;7.72;5.15;;;;;;;5.07;97.37;61515.34;5083562;28;20142;-72
2021/11/04 01:59:34;;;;;;;7.30;4.30;;;;;;;5.07;96.97;61514.75;5077877;28;20571;-73
2021/11/04 02:02:08;;;;;;;6.75;3.50;;;;;;;5.07;97.05;61514.72;5081180;28;20085;-73
2021/11/04 02:04:58;;;;;;;7.30;4.15;;;;;;;5.08;97.19;61515.09;5087471;28;20130;-73
2021/11/04 02:07:33;;;;;;;8.10;4.93;;;;;;;5.08;96.40;61515.63;5080389;28;20139;-73
2021/11/04 02:10:10;;;;;;;6.53;3.83;;;;;;;5.08;95.38;61515.25;5065608;28;20131;-72
2021/11/04 02:12:42;;;;;;;5.88;3.80;;;;;;;5.07;95.70;61514.81;5055353;28;20044;-73
2021/11/04 02:15:11;;;;;;;7.70;4.22;;;;;;;5.08;96.58;61515.41;5065125;28;20141;-73
2021/11/04 02:17:45;;;;;;;7.53;3.90;;;;;;;5.09;95.87;61516.34;5092288;28;20130;-73
2021/11/04 02:20:16;;;;;;;6.63;3.80;;;;;;;5.08;95.35;61515.94;5070461;28;20081;-73
2021/11/04 02:22:58;;;;;;;7.05;3.30;;;;;;;5.08;95.21;61516.06;5040615;28;20375;-73
2021/11/04 02:25:27;;;;;;;6.35;4.53;;;;;;;5.09;95.40;61517.22;5052165;28;20042;-73
2021/11/04 02:28:00;;;;;;;7.32;3.67;;;;;;;5.10;95.37;61517.97;5076175;28;20079;-73
2021/11/04 02:30:29;;;;;;;6.20;3.30;;;;;;;5.11;95.36;61519.06;5069019;28;20097;-73
2021/11/04 02:32:56;;;;;;;5.70;3.40;;;;;;;5.12;94.86;61519.28;5075580;28;20131;-73
2021/11/04 02:35:24;;;;;;;5.90;3.60;;;;;;;5.12;94.65;61520.09;5089593;28;20425;-73
2021/11/04 02:37:52;;;;;;;6.43;3.85;;;;;;;5.12;94.90;61519.28;5076948;28;20048;-73
2021/11/04 02:40:23;;;;;;;6.25;4.28;;;;;;;5.12;95.61;61519.56;5055946;28;20056;-73
2021/11/04 02:42:52;;;;;;;8.52;3.67;;;;;;;5.11;95.38;61518.75;5074979;28;20571;-73
2021/11/04 02:45:22;;;;;;;8.45;3.85;;;;;;;5.11;95.95;61518.34;5069642;28;20076;-73
2021/11/04 02:47:49;;;;;;;6.50;3.75;;;;;;;5.10;96.56;61517.38;5089462;28;20134;-73
2021/11/04 02:50:18;;;;;;;7.40;4.13;;;;;;;5.10;96.74;61517.06;5073639;28;20099;-73
2021/11/04 02:52:46;;;;;;;7.05;4.15;;;;;;;5.09;97.27;61515.88;5093293;28;20489;-72
2021/11/04 02:55:13;;;;;;;7.10;3.58;;;;;;;5.07;97.84;61514.66;5101452;28;20530;-73
2021/11/04 02:57:46;;;;;;;6.43;3.25;;;;;;;5.07;97.85;61513.53;5096522;28;20089;-72
2021/11/04 03:00:16;;;;;;;10.40;4.90;;;;;;;5.05;98.43;61512.47;5072630;28;20075;-73
2021/11/04 03:02:44;;;;;;;4.95;2.80;;;;;;;5.05;97.85;61512.22;5072257;28;20487;-73
2021/11/04 03:05:11;;;;;;;6.63;3.65;;;;;;;5.05;97.85;61511.84;5050510;28;20399;-72
2021/11/04 03:07:39;;;;;;;6.55;3.83;;;;;;;5.04;98.09;61511.56;5086255;28;20506;-73
2021/11/04 03:10:07;;;;;;;6.35;4.00;;;;;;;5.05;97.98;61511.50;5081696;28;20609;-73
2021/11/04 03:12:35;;;;;;;8.80;5.45;;;;;;;5.04;97.52;61511.28;5077330;28;20064;-73
2021/11/04 03:15:08;;;;;;;5.88;3.78;;;;;;;5.03;98.19;61510.31;5082902;28;20067;-73
2021/11/04 03:17:37;;;;;;;6.68;4.05;;;;;;;5.04;97.94;61511.13;5098859;28;20475;-73
2021/11/04 03:20:06;;;;;;;7.47;4.32;;;;;;;5.04;97.83;61510.97;5075736;28;20075;-73
2021/11/04 03:22:33;;;;;;;8.93;5.88;;;;;;;5.05;97.70;61511.69;5108135;28;20549;-73
2021/11/04 03:25:01;;;;;;;9.45;6.13;;;;;;;5.05;97.71;61511.50;5071578;28;20072;-73
2021/11/04 03:27:29;;;;;;;9.50;5.88;;;;;;;5.03;98.61;61510.25;5103370;28;20442;-73
2021/11/04 03:29:56;;;;;;;7.85;5.10;;;;;;;5.03;98.91;61509.88;5078497;28;20135;-73
2021/11/04 03:32:23;;;;;;;10.63;6.15;;;;;;;5.02;98.76;61509.22;5081803;28;20573;-73
2021/11/04 03:34:51;;;;;;;12.80;7.50;;;;;;;5.03;98.53;61510.03;5069342;28;20079;-73
2021/11/04 03:37:21;;;;;;;8.35;5.70;;;;;;;5.02;98.33;61509.81;5085768;28;20484;-73
2021/11/04 03:39:49;;;;;;;12.48;7.15;;;;;;;5.02;97.99;61509.44;5090888;28;20138;-73
2021/11/04 03:42:17;;;;;;;9.75;7.15;;;;;;;5.01;98.96;61508.19;5079697;28;20079;-73
2021/11/04 03:44:44;;;;;;;12.85;7.00;;;;;;;5.01;98.98;61507.59;5085211;28;20071;-73
2021/11/04 03:47:15;;;;;;;10.27;7.10;;;;;;;5.00;98.90;61507.09;5082745;28;20044;-73
2021/11/04 03:49:49;;;;;;;11.45;7.40;;;;;;;5.00;99.57;61506.94;5079560;28;20482;-73
2021/11/04 03:52:19;;;;;;;9.52;6.28;;;;;;;5.00;99.11;61507.47;5080526;28;20116;-73
2021/11/04 03:54:46;;;;;;;9.98;6.10;;;;;;;5.00;99.18;61507.78;5054415;28;20041;-73
2021/11/04 03:57:14;;;;;;;8.40;5.68;;;;;;;5.01;99.25;61508.59;5061479;28;20139;-73
2021/11/04 03:59:41;;;;;;;10.65;6.57;;;;;;;5.02;99.27;61509.00;5098795;28;20139;-73
2021/11/04 04:02:09;;;;;;;8.10;5.47;;;;;;;5.02;99.34;61508.69;5092048;28;20051;-73
2021/11/04 04:04:38;;;;;;;13.82;8.60;;;;;;;5.02;99.87;61509.53;5074213;28;20123;-73
2021/11/04 04:07:05;;;;;;;9.30;6.15;;;;;;;5.03;100.00;61510.41;5069605;28;20159;-73
2021/11/04 04:09:32;;;;;;;9.88;5.75;;;;;;;5.03;99.96;61511.25;5090355;28;20062;-73
2021/11/04 04:11:59;;;;;;;13.63;7.10;;;;;;;5.04;100.00;61511.97;5092606;28;20079;-73
2021/11/04 04:14:27;;;;;;;12.25;7.88;;;;;;;5.04;100.00;61512.53;5091391;28;20131;-73
2021/11/04 04:16:54;;;;;;;12.30;6.80;;;;;;;5.05;100.00;61513.00;5084031;28;20052;-73
2021/11/04 04:19:22;;;;;;;11.50;6.90;;;;;;;5.06;100.00;61513.72;5090111;28;20547;-73
2021/11/04 04:21:50;;;;;;;10.23;6.65;;;;;;;5.06;100.00;61514.13;5091312;28;20106;-73
2021/11/04 04:24:17;;;;;;;14.52;8.90;;;;;;;5.05;100.00;61513.75;5090157;28;20075;-73
2021/11/04 04:26:44;;;;;;;12.68;7.75;;;;;;;5.05;100.00;61513.91;5089737;28;20102;-73
2021/11/04 04:29:12;;;;;;;18.42;9.60;;;;;;;5.06;100.00;61514.34;5074110;28;20200;-73
2021/11/04 04:31:39;;;;;;;10.65;6.68;;;;;;;5.06;100.00;61514.78;5103873;28;20075;-73
2021/11/04 04:34:06;;;;;;;9.65;6.68;;;;;;;5.05;100.00;61514.56;5091308;28;20061;-72
2021/11/04 04:36:34;;;;;;;12.82;7.97;;;;;;;5.06;100.00;61515.09;5091365;28;20126;-73
2021/11/04 04:39:01;;;;;;;11.65;7.25;;;;;;;5.05;100.00;61514.56;5070308;28;20143;-73
2021/11/04 04:41:29;;;;;;;10.75;6.97;;;;;;;5.05;100.00;61514.44;5074016;28;20130;-72
2021/11/04 04:43:56;;;;;;;13.85;8.82;;;;;;;5.05;100.00;61514.28;5090977;28;20529;-73
2021/11/04 04:46:24;;;;;;;18.80;9.68;;;;;;;5.05;100.00;61514.13;5084609;28;20159;-74
2021/11/04 04:48:52;;;;;;;12.60;8.35;;;;;;;5.06;100.00;61515.09;5101243;28;20061;-73
2021/11/04 04:51:19;;;;;;;18.35;11.02;;;;;;;5.06;100.00;61515.66;5101361;28;20044;-73
2021/11/04 04:53:49;;;;;;;18.13;10.52;;;;;;;5.07;100.00;61515.75;5097308;28;20708;-73
2021/11/04 04:56:23;;;;;;;14.30;8.98;;;;;;;5.06;100.00;61515.81;5075346;28;20514;-74
2021/11/04 04:58:51;;;;;;;14.23;9.48;;;;;;;5.06;100.00;61515.25;5055770;28;20048;-74
2021/11/04 05:01:18;;;;;;;11.73;7.75;;;;;;;5.05;100.00;61513.84;5090288;28;20409;-73
2021/11/04 05:03:46;;;;;;;14.20;9.07;;;;;;;5.05;100.00;61514.41;5091469;28;20075;-74
2021/11/04 05:06:13;;;;;;;15.55;9.23;;;;;;;5.05;100.00;61514.13;5100907;28;20126;-74
2021/11/04 05:08:41;;;;;;;10.75;6.97;;;;;;;5.05;100.00;61513.97;5069132;28;20454;-74
2021/11/04 05:11:08;;;;;;;14.73;9.13;;;;;;;5.04;100.00;61513.03;5073881;28;20079;-74
2021/11/04 05:13:35;;;;;;;15.00;8.48;;;;;;;5.03;100.00;61512.50;5106026;28;20082;-75
2021/11/04 05:16:03;;;;;;;12.43;7.65;;;;;;;5.03;100.00;61512.16;5076303;28;20074;-74
2021/11/04 05:18:30;;;;;;;21.73;9.75;;;;;;;5.04;100.00;61512.56;5087804;28;20066;-74
2021/11/04 05:20:58;;;;;;;17.00;8.55;;;;;;;5.04;100.00;61512.56;5096619;28;20540;-74
2021/11/04 05:23:25;;;;;;;17.33;9.98;;;;;;;5.04;100.00;61512.53;5072253;28;20131;-74
2021/11/04 05:25:53;;;;;;;12.90;8.00;;;;;;;5.03;100.00;61511.69;5054804;28;20046;-75
2021/11/04 05:28:20;;;;;;;14.07;9.43;;;;;;;5.02;100.00;61510.44;5082044;28;20084;-74
2021/11/04 05:30:48;;;;;;;20.50;12.60;;;;;;;5.02;100.00;61509.75;5081056;28;20052;-74
2021/11/04 05:33:15;;;;;;;14.73;8.82;;;;;;;5.02;100.00;61509.75;5083074;28;20087;-74
2021/11/04 05:35:43;;;;;;;16.13;9.63;;;;;;;5.02;100.00;61510.13;5085954;28;20048;-74
2021/11/04 05:38:10;;;;;;;16.90;9.52;;;;;;;5.02;100.00;61509.59;5064931;28;20091;-74
2021/11/04 05:40:37;;;;;;;14.48;8.23;;;;;;;5.02;100.00;61510.13;5067312;28;20044;-74
2021/11/04 05:43:05;;;;;;;15.15;9.35;;;;;;;5.02;100.00;61510.44;5056940;28;20180;-75
2021/11/04 05:45:32;;;;;;;16.65;9.88;;;;;;;5.03;100.00;61511.38;5064340;28;20174;-74
2021/11/04 05:47:59;;;;;;;20.65;10.75;;;;;;;5.04;100.00;61511.63;5080990;28;20570;-74
2021/11/04 05:50:27;;;;;;;14.52;9.05;;;;;;;5.04;100.00;61511.63;5087820;28;20131;-74
2021/11/04 05:52:54;;;;;;;21.92;11.95;;;;;;;5.04;100.00;61511.44;5052036;28;20047;-74
2021/11/04 05:55:22;;;;;;;15.32;9.63;;;;;;;5.05;100.00;61512.59;5062077;28;20170;-74
2021/11/04 05:57:49;;;;;;;21.55;10.90;;;;;;;5.06;100.00;61513.66;5053343;28;20073;-74
2021/11/04 06:00:16;;;;;;;22.35;12.98;;;;;;;5.07;100.00;61515.03;5090330;28;20349;-74
2021/11/04 06:02:53;;;;;;;18.77;11.45;;;;;;;5.08;100.00;61516.53;5061917;28;20079;-74
2021/11/04 06:05:20;;;;;;;18.77;12.50;;;;;;;5.08;100.00;61516.25;5063975;28;20299;-73
2021/11/04 06:07:47;;;;;;;28.20;13.40;;;;;;;5.08;100.00;61516.25;5083827;28;20083;-73
2021/11/04 06:10:16;;;;;;;21.58;11.98;;;;;;;5.08;100.00;61516.44;5091075;28;20052;-73
2021/11/04 06:12:43;;;;;;;26.00;13.32;;;;;;;5.09;100.00;61517.41;5094334;28;20044;-73
2021/11/04 06:15:11;;;;;;;19.95;12.50;;;;;;;5.10;100.00;61518.06;5087178;28;20055;-73
2021/11/04 06:17:39;;;;;;;23.60;13.63;;;;;;;5.10;100.00;61518.44;5069407;28;20159;-73
2021/11/04 06:20:07;;;;;;;21.50;11.55;;;;;;;5.09;99.89;61517.78;5097054;28;20087;-73
2021/11/04 06:22:34;;;;;;;19.23;10.90;;;;;;;5.09;99.76;61517.47;5093516;28;20083;-73
2021/11/04 06:25:03;;;;;;;21.48;12.82;;;;;;;5.09;99.84;61516.81;5083418;28;20123;-73
2021/11/04 06:27:31;;;;;;;17.35;10.27;;;;;;;5.08;99.64;61516.69;5066466;28;20485;-74
2021/11/04 06:29:58;;;;;;;19.15;10.57;;;;;;;5.08;99.68;61515.72;5092587;28;20130;-74
2021/11/04 06:32:25;;;;;;;22.50;10.73;;;;;;;5.08;99.92;61516.00;5107546;28;20067;-74
2021/11/04 06:34:53;;;;;;;22.73;10.50;;;;;;;5.08;99.32;61516.00;5081061;28;20112;-74
2021/11/04 06:37:20;;;;;;;18.52;10.93;;;;;;;5.08;99.23;61516.38;5093776;28;20092;-74
2021/11/04 06:39:48;;;;;;;19.75;12.48;;;;;;;5.08;99.20;61516.09;5086316;28;20132;-74
2021/11/04 06:42:15;;;;;;;20.42;10.73;;;;;;;5.08;99.06;61515.53;5092359;28;20126;-74
2021/11/04 06:44:42;;;;;;;24.23;12.15;;;;;;;5.08;98.91;61516.38;5081193;28;20156;-73
2021/11/04 06:47:26;;;;;;;26.23;11.60;;;;;;;5.09;99.15;61517.22;5093797;28;20123;-73
2021/11/04 06:49:58;;;;;;;19.98;11.18;;;;;;;5.09;98.79;61517.09;5071015;28;20490;-73
2021/11/04 06:52:29;;;;;;;21.35;11.77;;;;;;;5.09;99.49;61517.16;5072135;28;20211;-74
2021/11/04 06:54:57;;;;;;;20.55;11.63;;;;;;;5.09;98.79;61517.16;5072624;28;20129;-74
2021/11/04 06:57:27;;;;;;;20.10;11.52;;;;;;;5.08;99.11;61516.75;5068543;28;20135;-73
2021/11/04 06:59:58;;;;;;;18.95;10.52;;;;;;;5.08;99.08;61516.31;5072902;28;20390;-73
2021/11/04 07:02:36;;;;;;;18.52;11.00;;;;;;;5.08;99.31;61515.72;5055661;28;20052;-73
2021/11/04 07:05:06;;;;;;;22.92;12.05;;;;;;;5.07;98.59;61515.63;5069718;28;20569;-73
2021/11/04 07:07:51;;;;;;;23.30;13.50;;;;;;;5.07;99.15;61515.34;5100793;28;20199;-73
2021/11/04 07:10:22;;;;;;;21.23;11.93;;;;;;;5.07;99.12;61515.06;5062824;28;20139;-73
2021/11/04 07:12:50;;;;;;;21.63;10.90;;;;;;;5.07;98.69;61515.50;5073631;28;20071;-74
2021/11/04 07:15:19;;;;;;;26.48;13.85;;;;;;;5.07;98.68;61515.47;5093681;28;20391;-73
2021/11/04 07:17:47;;;;;;;27.42;15.13;;;;;;;5.08;98.75;61516.59;5073667;28;20181;-73
2021/11/04 07:20:16;;;;;;;24.73;12.68;;;;;;;5.08;98.74;61516.59;5075698;28;20131;-73
2021/11/04 07:22:52;;;;;;;24.15;12.68;;;;;;;5.07;98.48;61515.25;5094708;28;20087;-73
2021/11/04 07:25:22;;;;;;;18.58;11.18;;;;;;;5.06;98.75;61514.25;5083142;28;20043;-73
2021/11/04 07:27:59;;;;;;;27.33;13.00;;;;;;;5.06;98.94;61514.25;5057813;28;20051;-73
2021/11/04 07:30:27;;;;;;;27.58;13.70;;;;;;;5.06;98.83;61513.97;5077406;28;20079;-73
2021/11/04 07:33:05;;;;;;;21.63;11.82;;;;;;;5.06;98.83;61514.25;5057155;28;20135;-73
2021/11/04 07:35:34;;;;;;;24.08;12.90;;;;;;;5.06;98.81;61513.94;5084181;28;20067;-73
2021/11/04 07:38:04;;;;;;;24.33;12.38;;;;;;;5.06;99.24;61513.50;5110082;28;20543;-73
2021/11/04 07:40:32;;;;;;;23.35;12.98;;;;;;;5.06;99.25;61513.50;5080593;28;20062;-73
2021/11/04 07:43:00;;;;;;;25.35;13.82;;;;;;;5.05;99.59;61512.59;5072662;28;20083;-73
2021/11/04 07:45:29;;;;;;;28.55;14.43;;;;;;;5.04;99.75;61511.94;5055929;28;20124;-73
2021/11/04 07:47:57;;;;;;;23.92;12.75;;;;;;;5.04;99.76;61511.81;5088537;28;20079;-74
2021/11/04 07:50:27;;;;;;;29.58;14.68;;;;;;;5.03;99.90;61511.38;5075380;28;20317;-73
2021/11/04 07:52:56;;;;;;;22.23;12.75;;;;;;;5.03;99.67;61510.84;5107620;28;20131;-74
2021/11/04 07:55:24;;;;;;;23.92;13.43;;;;;;;5.03;99.92;61510.41;5099574;28;20039;-73
2021/11/04 07:57:51;;;;;;;27.17;13.98;;;;;;;5.03;99.72;61510.72;5086785;28;20061;-73
2021/11/04 08:00:21;;;;;;;27.13;14.82;;;;;;;5.02;99.53;61510.19;5067737;28;20451;-73
2021/11/04 08:02:49;;;;;;;31.20;16.42;;;;;;;5.01;99.81;61508.97;5081849;28;20496;-73
2021/11/04 08:05:18;;;;;;;33.58;16.55;;;;;;;5.00;100.00;61507.47;5076732;28;20074;-73
2021/11/04 08:07:46;;;;;;;28.73;16.02;;;;;;;5.00;100.00;61507.47;5071245;28;20090;-73
2021/11/04 08:10:15;;;;;;;27.88;14.93;;;;;;;4.99;99.97;61507.06;5082617;28;20147;-73
2021/11/04 08:12:46;;;;;;;32.58;16.85;;;;;;;5.00;99.89;61507.31;5075257;28;20128;-73
2021/11/04 08:15:14;;;;;;;29.10;15.90;;;;;;;5.00;99.53;61507.69;5073822;28;20138;-73
2021/11/04 08:17:41;;;;;;;27.55;14.50;;;;;;;5.00;99.21;61507.69;5067638;28;20143;-74
2021/11/04 08:20:10;;;;;;;27.52;15.30;;;;;;;5.00;99.64;61507.16;5052205;28;20102;-73
2021/11/04 08:22:38;;;;;;;24.65;14.65;;;;;;;5.00;99.81;61507.47;5073913;28;20051;-74
2021/11/04 08:25:07;;;;;;;32.97;17.55;;;;;;;4.98;99.79;61506.25;5091480;28;20113;-73
2021/11/04 08:27:35;;;;;;;29.58;17.65;;;;;;;4.97;100.00;61504.63;5091655;28;20094;-74
2021/11/04 08:30:04;;;;;;;27.88;15.57;;;;;;;4.96;100.00;61503.38;5082762;28;20044;-73
2021/11/04 08:32:31;;;;;;;34.33;19.33;;;;;;;4.94;99.96;61501.75;5092481;28;20599;-74
2021/11/04 08:34:58;;;;;;;31.17;18.13;;;;;;;4.93;100.00;61500.13;5052677;28;20044;-73
2021/11/04 08:37:26;;;;;;;29.90;17.10;;;;;;;4.91;100.00;61498.91;5072236;28;20143;-74
2021/11/04 08:39:53;;;;;;;29.33;18.65;;;;;;;4.91;100.00;61498.25;5068293;28;20074;-74
2021/11/04 08:42:20;;;;;;;38.78;20.05;;;;;;;4.90;100.00;61497.75;5091752;28;20044;-73
2021/11/04 08:44:48;;;;;;;33.97;18.08;;;;;;;4.89;99.60;61496.94;5070873;28;20094;-73
2021/11/04 08:47:15;;;;;;;33.42;18.77;;;;;;;4.87;100.00;61494.75;5085402;28;20051;-73
2021/11/04 08:49:42;;;;;;;38.10;18.48;;;;;;;4.86;100.00;61493.13;5057310;28;20080;-73
2021/11/04 08:52:12;;;;;;;34.25;17.30;;;;;;;4.85;100.00;61492.38;5072137;28;20048;-73
2021/11/04 08:54:41;;;;;;;34.80;18.02;;;;;;;4.84;99.52;61491.28;5090017;28;20143;-73
2021/11/04 08:57:12;;;;;;;29.05;17.65;;;;;;;4.83;99.07;61490.63;5055634;28;20071;-73
2021/11/04 08:59:41;;;;;;;29.65;17.48;;;;;;;4.82;99.29;61489.97;5085286;28;20079;-73
2021/11/04 09:02:13;;;;;;;33.65;17.48;;;;;;;4.81;99.16;61489.16;5072911;28;20083;-74
2021/11/04 09:04:45;;;;;;;29.80;16.58;;;;;;;4.80;98.43;61488.06;5074684;28;20611;-73
2021/11/04 09:07:22;;;;;;;29.17;16.00;;;;;;;4.80;97.62;61487.94;5053625;28;20084;-73
2021/11/04 09:09:50;;;;;;;29.73;15.55;;;;;;;4.80;98.18;61487.50;5058114;28;20233;-73
2021/11/04 09:12:17;;;;;;;23.35;14.18;;;;;;;4.80;97.89;61488.09;5092187;28;20079;-73
2021/11/04 09:14:46;;;;;;;28.02;17.20;;;;;;;4.79;97.56;61487.41;5090151;28;20129;-73
2021/11/04 09:17:14;;;;;;;28.33;16.55;;;;;;;4.79;97.25;61486.97;5064957;28;20050;-73
2021/11/04 09:19:41;;;;;;;28.52;16.40;;;;;;;4.79;97.09;61486.88;5090798;28;20741;-73
2021/11/04 09:22:09;;;;;;;24.90;14.95;;;;;;;4.78;96.68;61486.03;5101404;28;20043;-73
2021/11/04 09:24:36;;;;;;;25.23;16.08;;;;;;;4.78;96.79;61486.16;5072159;28;20075;-73
2021/11/04 09:27:04;;;;;;;32.50;17.65;;;;;;;4.79;96.44;61486.56;5062743;28;20064;-73
2021/11/04 09:29:32;;;;;;;25.85;14.35;;;;;;;4.78;96.55;61486.00;5066420;28;20090;-73
2021/11/04 09:32:00;;;;;;;31.95;17.98;;;;;;;4.79;95.98;61487.13;5068384;28;20446;-73
2021/11/04 09:34:36;;;;;;;25.60;15.13;;;;;;;4.80;95.48;61487.63;5054251;28;20048;-73
2021/11/04 09:37:05;;;;;;;31.25;17.15;;;;;;;4.81;95.64;61488.84;5083223;28;20447;-73
2021/11/04 09:39:34;;;;;;;26.08;14.27;;;;;;;4.82;95.41;61490.19;5071742;28;20053;-73
2021/11/04 09:42:03;;;;;;;21.90;13.45;;;;;;;4.84;94.36;61491.78;5060676;28;20581;-73
2021/11/04 09:44:30;;;;;;;22.83;13.85;;;;;;;4.87;94.04;61494.06;5051845;28;20091;-73
2021/11/04 09:46:58;;;;;;;22.08;12.80;;;;;;;4.89;94.42;61496.25;5086201;28;20601;-73
2021/11/04 09:49:28;;;;;;;20.48;12.38;;;;;;;4.90;93.31;61497.69;5089927;28;20047;-72
2021/11/04 09:51:56;;;;;;;22.42;13.68;;;;;;;4.92;93.34;61499.44;5089996;28;20059;-73
2021/11/04 09:54:24;;;;;;;23.67;13.93;;;;;;;4.95;93.56;61502.72;5089887;28;20094;-73
2021/11/04 09:56:52;;;;;;;20.13;13.18;;;;;;;4.99;93.50;61506.75;5084207;28;20469;-73
2021/11/04 09:59:19;;;;;;;20.88;13.32;;;;;;;5.02;92.79;61509.31;5076698;28;20078;-72
2021/11/04 10:01:48;;;;;;;23.20;12.93;;;;;;;5.04;92.54;61511.63;5090479;28;20126;-72
2021/11/04 10:04:17;;;;;;;22.95;13.48;;;;;;;5.06;93.17;61514.06;5068484;28;20135;-72
2021/11/04 10:06:44;;;;;;;18.90;13.00;;;;;;;5.09;92.72;61517.16;5069628;28;20478;-72
2021/11/04 10:09:13;;;;;;;19.83;12.93;;;;;;;5.11;92.78;61519.06;5091861;28;20533;-72
2021/11/04 10:11:42;;;;;;;20.33;12.70;;;;;;;5.14;92.96;61522.75;5084517;28;20062;-73
2021/11/04 10:14:15;;;;;;;23.00;15.00;;;;;;;5.17;92.83;61525.63;5066286;28;20114;-72
2021/11/04 10:16:43;;;;;;;24.42;15.20;;;;;;;5.20;93.02;61528.63;5062448;28;20566;-72
2021/11/04 10:19:15;;;;;;;23.30;13.93;;;;;;;5.22;93.04;61530.53;5052641;28;20079;-72
2021/11/04 10:21:45;;;;;;;24.50;14.95;;;;;;;5.24;93.33;61533.41;5083853;28;20549;-72
2021/11/04 10:24:21;;;;;;;26.13;14.57;;;;;;;5.28;92.89;61537.50;5067224;28;20199;-72
2021/11/04 10:26:54;;;;;;;22.63;14.07;;;;;;;5.32;92.59;61541.53;5087260;28;20127;-72
2021/11/04 10:29:26;;;;;;;22.17;13.55;;;;;;;5.37;91.65;61546.44;5085308;28;20140;-76
2021/11/04 10:31:55;;;;;;;20.88;13.77;;;;;;;5.41;91.08;61551.34;5072202;28;20040;-73
2021/11/04 10:34:28;;;;;;;21.65;14.43;;;;;;;5.46;90.68;61556.38;5086998;28;20052;-72
2021/11/04 10:36:56;;;;;;;;;;;;;;;5.51;90.46;61561.78;5080888;28;20089;-72
2021/11/04 10:39:26;;;;;;;22.45;14.27;;;;;;;5.56;90.24;61566.94;5062678;28;20035;-72
2021/11/04 10:41:56;;;;;;;23.00;14.05;;;;;;;5.59;90.46;61570.38;5085365;28;20044;-72
2021/11/04 10:44:24;;;;;;;21.38;14.52;;;;;;;5.63;90.52;61574.13;5034935;28;20136;-73
2021/11/04 10:46:57;;;;;;;21.05;13.70;;;;;;;5.70;88.98;61580.84;5065834;28;20060;-74
2021/11/04 10:49:41;;;;;;;22.45;13.32;;;;;;;5.74;88.23;61585.00;5086774;28;20509;-72
2021/11/04 10:52:10;;;;;;;18.55;12.02;;;;;;;5.79;87.97;61588.88;5074925;28;20048;-73
2021/11/04 10:54:47;;;;;;;21.75;14.48;;;;;;;5.83;88.61;61593.47;5089355;28;20068;-72
2021/11/04 10:57:36;;;;;;;22.25;14.13;;;;;;;5.87;88.76;61597.28;5080966;28;20071;-72
2021/11/04 11:00:22;;;;;;;23.33;14.38;;;;;;;5.91;89.00;61601.88;5070310;28;20158;-72
2021/11/04 11:03:09;;;;;;;18.50;12.52;;;;;;;5.94;87.73;61605.16;5067782;28;20071;-73
2021/11/04 11:05:38;;;;;;;22.30;14.05;;;;;;;5.96;88.31;61607.31;5071266;28;20052;-72
2021/11/04 11:08:07;;;;;;;21.83;14.48;;;;;;;6.00;87.93;61610.88;5082843;28;20135;-72
2021/11/04 11:10:35;;;;;;;22.30;13.23;;;;;;;6.02;87.51;61613.59;5078634;28;20091;-72
2021/11/04 11:13:04;;;;;;;19.60;12.90;;;;;;;6.06;87.78;61617.56;5076637;28;20047;-72
2021/11/04 11:15:45;;;;;;;24.50;14.82;;;;;;;6.09;87.01;61620.63;5087367;28;20071;-72
2021/11/04 11:18:12;;;;;;;22.77;14.95;;;;;;;6.13;87.68;61624.44;5071892;28;20047;-71
2021/11/04 11:20:44;;;;;;;20.83;13.48;;;;;;;6.17;87.46;61628.53;5088054;28;20143;-73
2021/11/04 11:23:17;;;;;;;20.75;13.13;;;;;;;6.21;87.03;61632.88;5067775;28;20603;-72
2021/11/04 11:25:50;;;;;;;20.42;12.90;;;;;;;6.24;86.68;61635.56;5066969;28;20071;-72
2021/11/04 11:28:20;;;;;;;22.55;13.90;;;;;;;6.27;87.54;61639.09;5055767;28;20287;-72
2021/11/04 11:31:11;;;;;;;21.02;12.20;;;;;;;6.29;85.75;61641.38;5054801;28;20087;-73
2021/11/04 11:33:42;;;;;;;22.17;13.65;;;;;;;6.31;86.34;61642.59;5074508;28;20529;-72
2021/11/04 11:36:14;;;;;;;21.83;13.35;;;;;;;6.33;86.77;61645.03;5081394;28;20059;-72
2021/11/04 11:38:58;;;;;;;20.08;13.75;;;;;;;6.34;87.11;61646.03;5069195;28;20113;-72